Nome, AK

1:07 AM AKDT on August 27, 2014 (GMT -0800)
Nome | Change Station
CLOSE
Current Station
Airport
Location: Nome,
Elevation: 36 ft
Nearby Weather Stations

Elev 36 ft 64.51 °N, 165.45 °W | Updated 14 minutes ago

Mostly Cloudy
Mostly Cloudy
52 °F
Feels Like 52 °F
N
0
Wind Variable Wind from North

Today
High -- | Low -- °F
--% Chance of Precip.
Yesterday
High -- | Low -- °F
Precip. -- in
7:28 AM 10:35 PM
Waxing Crescent, 3% visible
Pressure 29.75 in
Visibility 10.0 miles
Clouds Few 400 ft
Few 1800 ft
Mostly Cloudy 3200 ft
Dew Point 51 °F
Humidity 97%
Rainfall 0.00 in
Snow Depth Not available.
UV 0 out of 12
Pollen Not available.
Air Quality Not available.
Flu Activity Not available.
METAR PAOM 270853Z 00000KT 10SM FEW004 FEW018 BKN032 11/11 A2975 RMK SLP073 60000 T01110106 401390078 56007 VIA AUTODIAL

More Conditions Fewer Conditions

Pressure 29.75 in
Visibility 10.0 miles
Clouds Few 400 ft
Few 1800 ft
Mostly Cloudy 3200 ft
Dew Point 51 °F
Humidity 97%
Rainfall 0.00 in
Snow Depth Not available.
UV 0 out of 12
Pollen Not available.
Air Quality Not available.
Flu Activity Not available.
METAR PAOM 270853Z 00000KT 10SM FEW004 FEW018 BKN032 11/11 A2975 RMK SLP073 60000 T01110106 401390078 56007 VIA AUTODIAL

More Conditions Fewer Conditions

10-Day Weather Forecast

Almanac

Astronomy

Aug. 27, 2014 Rise Set
Actual Time 7:28 AM AKDT 10:35 PM AKDT
Civil Twilight 6:31 AM AKDT 11:32 PM AKDT
Nautical Twilight 5:06 AM AKDT 12:55 AM AKDT
Astronomical Twilight 3:35 AM AKDT 2:30 AM AKDT
Moon 10:38 AM AKDT 10:23 PM AKDT
Length of Visible Light 17h 00m
Length of Day
15h 07m
Tomorrow will be 6m 39s shorter.
Waxing Crescent, 3% of the Moon is Illuminated
Today
Waxing Crescent
Sep 2
First Quarter
Sep 8
Full
Sep 15
Last Quarter
Sep 24
New

Today's Extremes

State Highs State Lows

Community

WunderPhotos

Upload Photos

1,747,661 photos uploaded!

Nearby

Snow Depth

Station Depth Elevation
Rocky Point 3 in 500 ft
Coldfoot 1 in 1040 ft
Susitna Valley High 2 in 375 ft
Atigun Pass 0 in 4800 ft
Imnaviat Creek 0 in 3050 ft

Earthquake Activity

City Distance Mag. Time & Date
No recent earthquake activity has been reported nearby.
Minimum magnitude displayed is 2.5.

Coastal Water Temperatures

Place Temperature
No Stations Reporting

Nearby Weather Stations